Time;durP1;ratioP1;P1;durP2;ratioP2;P2;SDS_P1;SDS_P2;PMS_P1;PMS_P2;Temp;Humidity;BMP_temperature;BMP_pressure;BME280_temperature;BME280_humidity;BME280_pressure;Samples;Min_cycle;Max_cycle;Signal;HPM_P1;HPM_P2
2023/12/22 00:02:17;;;;;;;78.03;41.72;;;;;;;6.90;68.45;99239.63;5052132;28;20033;-77
2023/12/22 00:04:42;;;;;;;80.43;40.78;;;;;;;6.93;67.96;99250.88;5051793;28;20033;-77
2023/12/22 00:07:08;;;;;;;76.03;40.33;;;;;;;6.90;68.33;99244.97;5051994;28;20047;-78
2023/12/22 00:09:33;;;;;;;70.85;38.55;;;;;;;6.98;68.67;99242.44;5056435;28;20435;-79
2023/12/22 00:11:58;;;;;;;67.70;35.72;;;;;;;6.99;68.30;99236.13;5056227;28;20392;-79
2023/12/22 00:14:24;;;;;;;47.88;25.73;;;;;;;7.00;68.16;99224.47;5051533;28;20056;-77
2023/12/22 00:16:49;;;;;;;55.35;27.98;;;;;;;6.96;68.27;99223.03;5051822;28;20408;-76
2023/12/22 00:19:15;;;;;;;60.45;27.60;;;;;;;6.89;67.85;99225.41;5049895;28;20033;-77
2023/12/22 00:21:40;;;;;;;42.78;22.05;;;;;;;6.64;68.47;99201.81;5050748;28;20473;-76
2023/12/22 00:24:06;;;;;;;34.10;20.67;;;;;;;6.73;69.03;99205.53;5050438;28;20025;-77
2023/12/22 00:26:32;;;;;;;32.03;18.30;;;;;;;6.75;68.92;99211.59;5050880;28;20049;-76
2023/12/22 00:28:57;;;;;;;37.55;21.48;;;;;;;6.75;69.17;99192.88;5050397;28;20029;-76
2023/12/22 00:31:23;;;;;;;32.42;20.58;;;;;;;6.79;69.08;99210.34;5050554;28;20405;-78
2023/12/22 00:33:49;;;;;;;39.70;21.00;;;;;;;6.84;68.76;99202.75;5050555;28;20445;-80
2023/12/22 00:36:14;;;;;;;29.80;19.23;;;;;;;6.90;69.17;99202.22;5050699;28;20021;-77
2023/12/22 00:38:40;;;;;;;39.97;21.17;;;;;;;6.82;68.76;99191.38;5050348;28;20090;-78
2023/12/22 00:41:06;;;;;;;30.67;20.48;;;;;;;6.84;68.84;99187.56;5050830;28;20060;-77
2023/12/22 00:43:31;;;;;;;38.88;20.67;;;;;;;6.77;69.13;99164.19;5050730;28;20025;-77
2023/12/22 00:45:57;;;;;;;35.63;20.92;;;;;;;6.87;68.66;99183.78;5050410;28;20044;-78
2023/12/22 00:48:23;;;;;;;40.40;22.42;;;;;;;6.74;68.60;99164.47;5050785;28;20063;-77
2023/12/22 00:50:48;;;;;;;36.63;22.23;;;;;;;6.83;68.92;99174.34;5051343;28;20028;-77
2023/12/22 00:53:14;;;;;;;43.05;20.45;;;;;;;6.87;69.03;99175.75;5050962;28;20033;-78
2023/12/22 00:55:39;;;;;;;32.45;19.85;;;;;;;7.00;68.45;99187.06;5051264;28;20029;-77
2023/12/22 00:58:05;;;;;;;33.25;20.58;;;;;;;6.92;68.37;99155.66;5053232;28;20025;-80
2023/12/22 01:00:30;;;;;;;39.78;23.10;;;;;;;6.98;68.40;99183.66;5060245;28;20025;-77
2023/12/22 01:02:56;;;;;;;32.83;20.85;;;;;;;6.91;68.09;99155.81;5054133;28;20068;-78
2023/12/22 01:05:21;;;;;;;39.90;24.15;;;;;;;6.94;68.49;99177.72;5051258;28;20088;-77
2023/12/22 01:07:47;;;;;;;37.55;23.08;;;;;;;7.02;68.31;99163.69;5051253;28;20041;-79
2023/12/22 01:10:12;;;;;;;33.60;21.35;;;;;;;7.09;68.14;99159.50;5050270;28;20166;-77
2023/12/22 01:12:38;;;;;;;45.25;24.25;;;;;;;7.06;67.94;99171.28;5049938;28;20033;-80
2023/12/22 01:15:04;;;;;;;46.42;26.20;;;;;;;7.05;67.62;99153.56;5050367;28;20401;-78
2023/12/22 01:17:29;;;;;;;48.88;27.95;;;;;;;7.04;67.64;99146.53;5049927;28;20032;-77
2023/12/22 01:19:55;;;;;;;58.25;30.88;;;;;;;7.11;67.36;99149.50;5049635;28;20025;-79
2023/12/22 01:22:22;;;;;;;56.95;30.33;;;;;;;7.10;67.15;99145.97;5049371;28;20481;-81
2023/12/22 01:24:48;;;;;;;58.58;30.15;;;;;;;7.11;66.77;99142.31;5049650;28;20033;-78
2023/12/22 01:27:13;;;;;;;57.83;33.25;;;;;;;6.82;67.01;99127.25;5049894;28;20048;-78
2023/12/22 01:29:39;;;;;;;58.10;31.42;;;;;;;6.86;67.21;99140.19;5049703;28;20025;-79
2023/12/22 01:32:05;;;;;;;66.20;33.65;;;;;;;6.79;67.32;99117.66;5049614;28;20041;-78
2023/12/22 01:34:30;;;;;;;72.45;34.45;;;;;;;6.57;67.75;99120.56;5049433;28;20037;-78
2023/12/22 01:36:56;;;;;;;54.35;30.02;;;;;;;6.67;68.58;99109.88;5049511;28;20461;-79
2023/12/22 01:39:22;;;;;;;55.33;33.58;;;;;;;6.58;68.12;99109.75;5050002;28;20029;-79
2023/12/22 01:41:47;;;;;;;60.10;34.92;;;;;;;6.57;68.41;99105.38;5049847;28;20033;-77
2023/12/22 01:44:13;;;;;;;58.63;34.08;;;;;;;6.45;68.39;99101.13;5050436;28;20104;-77
2023/12/22 01:46:38;;;;;;;70.13;36.67;;;;;;;6.30;68.31;99102.47;5049816;28;20047;-77
2023/12/22 01:49:05;;;;;;;85.88;37.33;;;;;;;6.23;68.85;99098.69;5055059;28;20033;-76
2023/12/22 01:51:33;;;;;;;68.38;37.63;;;;;;;5.97;69.48;99068.91;5057106;28;20032;-77
2023/12/22 01:54:00;;;;;;;58.25;35.10;;;;;;;6.02;69.81;99057.88;5050893;28;20028;-76
2023/12/22 01:56:26;;;;;;;73.72;38.28;;;;;;;6.03;69.81;99051.53;5048948;28;20401;-77
2023/12/22 01:58:59;;;;;;;67.70;35.85;;;;;;;6.30;69.59;99082.97;5048080;28;20621;-78
2023/12/22 02:01:24;;;;;;;63.03;35.58;;;;;;;6.33;69.80;99080.84;5049108;28;20070;-77
2023/12/22 02:03:54;;;;;;;51.97;31.63;;;;;;;6.35;69.75;99078.91;5063141;28;20044;-81
2023/12/22 02:06:20;;;;;;;51.90;31.67;;;;;;;6.44;69.35;99077.25;5047827;28;20085;-78
2023/12/22 02:08:47;;;;;;;53.03;29.30;;;;;;;6.44;69.05;99067.41;5048787;28;20033;-78
2023/12/22 02:11:16;;;;;;;58.10;32.67;;;;;;;6.50;69.42;99066.84;5029790;28;20147;-78
2023/12/22 02:13:45;;;;;;;49.10;28.48;;;;;;;6.50;68.79;99061.53;5048643;28;20813;-78
2023/12/22 02:16:37;;;;;;;46.33;28.92;;;;;;;6.46;68.67;99052.09;5048846;28;20104;-80
2023/12/22 02:19:16;;;;;;;47.88;29.13;;;;;;;6.49;68.53;99062.50;5048973;28;20036;-76
2023/12/22 02:22:04;;;;;;;42.17;25.70;;;;;;;6.46;68.49;99048.56;5048801;28;20116;-79
2023/12/22 02:24:33;;;;;;;37.05;23.73;;;;;;;6.32;68.69;99035.63;5048647;28;20024;-76
2023/12/22 02:27:13;;;;;;;46.33;22.25;;;;;;;6.34;69.02;99039.84;5106712;27;20373;-78
2023/12/22 02:29:45;;;;;;;28.75;16.88;;;;;;;6.34;69.05;99031.81;5106809;28;20124;-78
2023/12/22 02:32:22;;;;;;;44.25;19.63;;;;;;;6.51;68.94;99031.13;5106260;28;20120;-78
2023/12/22 02:34:50;;;;;;;39.15;21.05;;;;;;;6.53;68.80;99025.69;5106711;28;20130;-78
2023/12/22 02:37:17;;;;;;;25.25;16.83;;;;;;;6.63;68.54;99001.66;5106122;28;20043;-78
2023/12/22 02:39:43;;;;;;;23.00;15.63;;;;;;;6.63;68.17;98986.47;5108981;28;20396;-80
2023/12/22 02:42:09;;;;;;;32.17;15.48;;;;;;;6.89;67.68;99008.13;5113705;28;20094;-77
2023/12/22 02:44:35;;;;;;;28.35;14.75;;;;;;;6.90;67.66;98983.09;5105710;28;20103;-77
2023/12/22 02:47:00;;;;;;;23.90;15.82;;;;;;;6.95;67.37;98972.81;5105415;28;20462;-77
2023/12/22 02:49:26;;;;;;;33.20;19.10;;;;;;;7.00;66.75;98997.28;5105394;28;20055;-77
2023/12/22 02:51:52;;;;;;;37.00;18.40;;;;;;;7.03;66.25;98983.66;5105127;28;20062;-77
2023/12/22 02:54:17;;;;;;;28.02;16.30;;;;;;;7.08;65.96;98992.06;5105301;28;20020;-78
2023/12/22 02:56:46;;;;;;;34.67;18.40;;;;;;;7.12;66.09;98983.59;5102804;28;20479;-78
2023/12/22 02:59:11;;;;;;;35.28;18.80;;;;;;;7.10;65.28;98971.38;5105158;28;20039;-78
2023/12/22 03:01:37;;;;;;;37.97;19.95;;;;;;;7.26;65.29;98990.34;5104900;28;20028;-78
2023/12/22 03:04:02;;;;;;;50.22;19.67;;;;;;;7.33;65.90;98986.13;5105069;28;20023;-77
2023/12/22 03:06:28;;;;;;;38.25;18.00;;;;;;;7.38;65.08;98985.69;5104760;28;20436;-79
2023/12/22 03:08:53;;;;;;;31.15;17.38;;;;;;;7.25;65.28;98959.25;5104793;28;20055;-79
2023/12/22 03:11:18;;;;;;;36.22;16.73;;;;;;;7.27;65.06;98949.28;5105037;28;20111;-76
2023/12/22 03:13:44;;;;;;;27.17;16.27;;;;;;;7.31;65.53;98952.50;5104956;28;20476;-78
2023/12/22 03:16:10;;;;;;;26.63;16.88;;;;;;;7.41;65.10;98969.34;5105036;28;20043;-77
2023/12/22 03:18:39;;;;;;;22.60;14.55;;;;;;;7.47;65.22;98956.22;5105175;28;20456;-78
2023/12/22 03:21:05;;;;;;;40.22;18.50;;;;;;;7.52;64.89;98959.28;5105208;28;20218;-78
2023/12/22 03:23:30;;;;;;;27.10;17.88;;;;;;;7.44;64.28;98940.47;5105293;28;20027;-78
2023/12/22 03:25:56;;;;;;;43.20;21.60;;;;;;;7.30;64.61;98922.25;5105125;28;20499;-79
2023/12/22 03:28:21;;;;;;;43.08;22.17;;;;;;;7.38;64.29;98951.75;5105354;28;20123;-76
2023/12/22 03:30:47;;;;;;;58.17;25.23;;;;;;;7.30;65.19;98953.47;5104890;28;20031;-78
2023/12/22 03:33:12;;;;;;;56.13;29.40;;;;;;;7.16;65.18;98949.41;5109611;28;20038;-77
2023/12/22 03:35:38;;;;;;;53.97;32.40;;;;;;;7.13;65.70;98947.88;5109845;28;20088;-78
2023/12/22 03:38:03;;;;;;;69.80;35.97;;;;;;;6.93;65.71;98942.72;5093371;28;20028;-80
2023/12/22 03:40:29;;;;;;;68.07;34.92;;;;;;;6.89;66.13;98946.66;5091255;28;20023;-78
2023/12/22 03:42:55;;;;;;;75.32;38.20;;;;;;;6.81;66.23;98936.69;5090598;28;20058;-79
2023/12/22 03:45:21;;;;;;;74.10;37.05;;;;;;;6.70;66.09;98917.28;5090383;28;20036;-78
2023/12/22 03:47:46;;;;;;;69.95;37.20;;;;;;;6.79;66.35;98943.19;5089079;28;20172;-77
2023/12/22 03:50:12;;;;;;;67.85;37.30;;;;;;;6.67;66.50;98909.56;5090317;28;20032;-78
2023/12/22 03:52:37;;;;;;;75.25;39.20;;;;;;;6.74;66.63;98913.34;5090462;28;20099;-78
2023/12/22 03:55:03;;;;;;;69.45;39.08;;;;;;;6.81;66.74;98922.50;5090694;28;20473;-77
2023/12/22 03:57:28;;;;;;;75.30;40.28;;;;;;;6.68;66.99;98904.09;5090910;28;20032;-78
2023/12/22 03:59:54;;;;;;;62.97;39.05;;;;;;;6.71;66.73;98913.63;5090400;28;20502;-80
2023/12/22 04:02:19;;;;;;;74.82;41.47;;;;;;;6.71;67.03;98921.66;5090274;28;20055;-78
2023/12/22 04:04:45;;;;;;;78.35;41.22;;;;;;;6.57;67.06;98913.06;5090142;28;20443;-77
2023/12/22 04:07:10;;;;;;;70.43;40.67;;;;;;;6.61;67.54;98912.78;5090554;28;20024;-79
2023/12/22 04:09:39;;;;;;;85.72;42.05;;;;;;;6.49;67.21;98904.94;5090994;28;20112;-78
2023/12/22 04:12:05;;;;;;;74.35;38.72;;;;;;;6.66;67.62;98910.56;5090968;28;20021;-78
2023/12/22 04:14:30;;;;;;;76.25;40.65;;;;;;;6.66;67.76;98913.22;5090984;28;20024;-77
2023/12/22 04:16:57;;;;;;;77.75;36.58;;;;;;;6.48;67.58;98881.88;5091081;28;20055;-77
2023/12/22 04:19:22;;;;;;;70.22;38.83;;;;;;;6.61;67.61;98913.63;5090474;28;20039;-77
2023/12/22 04:21:48;;;;;;;68.75;37.53;;;;;;;6.39;67.65;98896.06;5090766;28;20472;-79
2023/12/22 04:24:13;;;;;;;82.22;36.50;;;;;;;6.51;67.95;98918.97;5090386;28;20032;-77
2023/12/22 04:26:39;;;;;;;67.03;37.25;;;;;;;6.59;68.11;98899.59;5089647;28;20511;-76
2023/12/22 04:29:05;;;;;;;87.88;37.25;;;;;;;6.66;68.11;98916.75;5090282;28;20050;-78
2023/12/22 04:31:30;;;;;;;95.75;45.35;;;;;;;6.63;67.94;98909.03;5090153;28;20496;-80
2023/12/22 04:33:56;;;;;;;101.72;47.25;;;;;;;6.60;68.04;98903.97;5089959;28;20071;-77
2023/12/22 04:36:21;;;;;;;89.90;48.88;;;;;;;6.56;68.34;98908.75;5089552;28;20047;-80
2023/12/22 04:38:47;;;;;;;110.70;54.40;;;;;;;6.61;68.16;98912.78;5089642;28;20028;-79
2023/12/22 04:41:12;;;;;;;109.00;56.40;;;;;;;6.42;68.18;98879.78;5089542;28;20070;-80
2023/12/22 04:43:38;;;;;;;95.45;48.30;;;;;;;6.48;68.28;98887.22;5089662;28;20020;-77
2023/12/22 04:46:03;;;;;;;119.90;55.95;;;;;;;6.52;68.43;98885.13;5089132;28;20108;-79
2023/12/22 04:48:29;;;;;;;128.20;55.78;;;;;;;6.64;68.27;98901.81;5088346;28;20035;-78
2023/12/22 04:50:54;;;;;;;100.03;49.25;;;;;;;6.61;68.28;98875.41;5089165;28;20032;-79
2023/12/22 04:53:20;;;;;;;99.93;50.40;;;;;;;6.54;68.28;98886.66;5089155;28;20027;-77
2023/12/22 04:55:46;;;;;;;99.78;47.42;;;;;;;6.45;68.17;98860.81;5069956;28;20044;-78
2023/12/22 04:58:11;;;;;;;129.52;41.25;;;;;;;6.67;68.23;98874.81;5089347;28;20079;-79
2023/12/22 05:00:37;;;;;;;121.10;42.83;;;;;;;6.75;68.17;98872.31;5089697;28;20031;-80
2023/12/22 05:03:03;;;;;;;85.07;41.63;;;;;;;6.80;68.38;98875.38;5089277;28;20416;-78
2023/12/22 05:05:29;;;;;;;132.30;44.20;;;;;;;6.88;68.50;98867.50;5090099;28;20028;-78
2023/12/22 05:07:54;;;;;;;119.88;42.00;;;;;;;6.97;68.16;98872.78;5089622;28;20031;-79
2023/12/22 05:10:20;;;;;;;109.72;40.97;;;;;;;6.99;68.43;98870.84;5091545;28;20031;-79
2023/12/22 05:12:45;;;;;;;92.95;39.45;;;;;;;6.94;67.71;98846.38;5094878;28;20031;-77
2023/12/22 05:15:11;;;;;;;55.20;27.02;;;;;;;7.12;68.13;98870.53;5091801;28;20031;-76
2023/12/22 05:17:36;;;;;;;66.63;31.05;;;;;;;7.19;68.27;98868.94;5089051;28;20038;-78
2023/12/22 05:20:02;;;;;;;70.78;26.58;;;;;;;7.19;67.87;98860.91;5088939;28;20400;-81
2023/12/22 05:22:29;;;;;;;32.70;19.75;;;;;;;7.38;67.95;98865.34;5088721;28;20027;-76
2023/12/22 05:24:56;;;;;;;53.28;23.65;;;;;;;7.44;67.73;98862.06;5085574;28;20039;-80
2023/12/22 05:27:21;;;;;;;52.63;24.65;;;;;;;7.60;67.12;98868.47;5088321;28;20681;-78
2023/12/22 05:29:47;;;;;;;54.28;22.27;;;;;;;7.64;67.01;98872.50;5088335;28;20028;-79
2023/12/22 05:32:13;;;;;;;57.55;25.25;;;;;;;7.74;66.87;98885.00;5088205;28;20395;-79
2023/12/22 05:34:38;;;;;;;52.38;24.90;;;;;;;7.46;66.77;98836.03;5087120;28;20062;-78
2023/12/22 05:37:04;;;;;;;43.75;24.00;;;;;;;7.88;66.21;98871.13;5088377;28;20035;-77
2023/12/22 05:39:29;;;;;;;73.82;28.35;;;;;;;7.97;65.63;98883.59;5088683;28;20023;-80
2023/12/22 05:41:55;;;;;;;47.22;23.27;;;;;;;7.77;65.47;98833.88;5088505;28;20028;-79
2023/12/22 05:44:22;;;;;;;76.28;31.08;;;;;;;8.00;65.01;98864.56;5088041;28;20028;-78
2023/12/22 05:46:47;;;;;;;57.15;28.63;;;;;;;7.97;65.16;98864.88;5087630;28;20028;-79
2023/12/22 05:49:13;;;;;;;122.32;32.90;;;;;;;8.09;65.13;98871.69;5088732;28;20035;-79
2023/12/22 05:51:39;;;;;;;141.40;38.28;;;;;;;7.92;65.21;98840.41;5071008;28;20105;-78
2023/12/22 05:54:07;;;;;;;61.30;30.35;;;;;;;8.13;64.82;98873.06;5067337;28;20082;-77
2023/12/22 05:56:33;;;;;;;67.90;27.10;;;;;;;8.08;65.01;98870.00;5069738;28;20048;-79
2023/12/22 05:58:59;;;;;;;67.32;28.92;;;;;;;8.01;64.71;98852.88;5068729;28;20059;-78
2023/12/22 06:01:24;;;;;;;42.35;24.98;;;;;;;8.15;64.45;98868.41;5070037;28;20442;-80
2023/12/22 06:03:50;;;;;;;59.60;27.90;;;;;;;8.11;64.33;98843.75;5073755;28;20027;-80
2023/12/22 06:06:15;;;;;;;44.70;23.63;;;;;;;8.08;64.36;98833.38;5070288;28;20032;-78
2023/12/22 06:08:41;;;;;;;58.22;24.67;;;;;;;8.29;64.01;98873.25;5067854;28;20443;-77
2023/12/22 06:11:06;;;;;;;48.55;23.50;;;;;;;8.28;63.94;98863.56;5067909;28;20028;-80
2023/12/22 06:13:32;;;;;;;54.80;23.27;;;;;;;8.47;63.67;98875.94;5067331;28;20115;-77
2023/12/22 06:15:57;;;;;;;50.47;23.10;;;;;;;8.42;63.79;98873.72;5067620;28;20086;-76
2023/12/22 06:18:23;;;;;;;56.45;24.02;;;;;;;8.46;63.31;98868.88;5067505;28;20492;-79
2023/12/22 06:20:48;;;;;;;60.35;27.17;;;;;;;8.53;63.05;98875.31;5068418;28;20033;-77
2023/12/22 06:23:14;;;;;;;165.23;42.08;;;;;;;8.63;62.95;98868.00;5069307;28;20032;-77
2023/12/22 06:25:39;;;;;;;42.30;24.70;;;;;;;8.65;62.67;98866.84;5087819;28;20484;-79
2023/12/22 06:28:05;;;;;;;56.28;24.50;;;;;;;8.67;61.76;98853.31;5088158;28;20051;-77
2023/12/22 06:30:30;;;;;;;63.38;25.02;;;;;;;8.74;61.55;98851.69;5087958;28;20517;-79
2023/12/22 06:32:56;;;;;;;56.22;25.30;;;;;;;8.72;61.43;98859.88;5088078;28;20044;-77
2023/12/22 06:35:25;;;;;;;48.65;23.35;;;;;;;8.67;60.93;98831.88;5087808;28;20035;-77
2023/12/22 06:37:51;;;;;;;67.68;24.30;;;;;;;8.82;61.00;98842.88;5088566;28;20027;-78
2023/12/22 06:40:17;;;;;;;51.13;24.50;;;;;;;8.89;60.87;98855.50;5088843;28;20028;-79
2023/12/22 06:42:42;;;;;;;47.30;26.23;;;;;;;8.81;60.20;98830.47;5088464;28;20024;-80
2023/12/22 06:45:10;;;;;;;48.92;22.50;;;;;;;8.73;60.40;98832.09;5089336;28;20081;-78
2023/12/22 06:47:36;;;;;;;45.50;23.20;;;;;;;8.74;60.82;98836.44;5088557;28;20482;-77
2023/12/22 06:50:02;;;;;;;68.78;24.75;;;;;;;8.75;60.99;98829.25;5089832;28;20027;-79
2023/12/22 06:52:28;;;;;;;45.80;24.40;;;;;;;8.88;60.67;98836.88;5095161;28;20028;-79
2023/12/22 06:54:53;;;;;;;72.05;26.38;;;;;;;8.84;60.57;98830.16;5092852;28;20031;-79
2023/12/22 06:57:20;;;;;;;52.70;23.38;;;;;;;8.88;60.75;98810.91;5088035;28;20028;-76
2023/12/22 06:59:48;;;;;;;39.47;21.85;;;;;;;9.00;60.34;98822.19;5087742;28;20080;-78
2023/12/22 07:02:13;;;;;;;62.53;24.88;;;;;;;9.04;60.09;98835.16;5087427;28;20024;-74
2023/12/22 07:04:39;;;;;;;47.30;23.63;;;;;;;8.99;59.90;98807.13;5086741;28;20503;-78
2023/12/22 07:07:04;;;;;;;54.47;24.13;;;;;;;9.17;59.59;98822.13;5087170;28;20035;-78
2023/12/22 07:09:31;;;;;;;41.45;23.25;;;;;;;9.14;59.50;98813.59;5087379;28;20035;-78
2023/12/22 07:11:56;;;;;;;54.15;22.88;;;;;;;9.26;58.65;98825.72;5087496;28;20031;-77
2023/12/22 07:14:22;;;;;;;42.15;22.60;;;;;;;9.22;58.86;98818.97;5090440;28;20024;-78
2023/12/22 07:16:47;;;;;;;40.75;19.98;;;;;;;9.22;58.48;98818.97;5090526;28;20047;-77
2023/12/22 07:19:13;;;;;;;48.15;23.33;;;;;;;9.12;58.51;98815.56;5090686;28;20024;-77
2023/12/22 07:21:40;;;;;;;43.83;23.58;;;;;;;9.23;58.71;98821.47;5090699;28;20032;-80
2023/12/22 07:24:06;;;;;;;40.30;20.80;;;;;;;9.25;58.75;98814.13;5091094;28;20107;-76
2023/12/22 07:26:32;;;;;;;49.05;21.33;;;;;;;9.34;58.56;98815.00;5090824;28;20048;-82
2023/12/22 07:28:58;;;;;;;42.42;24.67;;;;;;;9.36;58.64;98806.81;5092586;28;20771;-79
2023/12/22 07:31:24;;;;;;;58.95;28.55;;;;;;;9.37;58.40;98785.19;5091918;28;20035;-78
2023/12/22 07:33:50;;;;;;;52.50;24.35;;;;;;;9.42;58.48;98788.19;5091528;28;20502;-79
2023/12/22 07:36:15;;;;;;;46.45;23.42;;;;;;;9.53;58.29;98800.50;5092319;28;20077;-78
2023/12/22 07:38:41;;;;;;;52.58;24.90;;;;;;;9.54;58.35;98797.63;5092509;28;20032;-79
2023/12/22 07:41:07;;;;;;;48.65;24.35;;;;;;;9.58;58.45;98804.38;5097172;28;20024;-80
2023/12/22 07:43:33;;;;;;;46.42;23.25;;;;;;;9.64;58.15;98795.66;5098946;28;20088;-82
2023/12/22 07:45:58;;;;;;;43.25;22.60;;;;;;;9.70;58.29;98789.63;5074371;28;20499;-77
2023/12/22 07:48:26;;;;;;;38.72;21.63;;;;;;;9.72;58.00;98786.81;5090210;28;20499;-78
2023/12/22 07:50:52;;;;;;;47.30;24.30;;;;;;;9.78;57.46;98795.00;5089832;28;20030;-80
2023/12/22 07:53:17;;;;;;;40.88;21.58;;;;;;;9.73;58.09;98786.63;5091071;28;20111;-79
2023/12/22 07:55:44;;;;;;;66.68;26.85;;;;;;;9.86;57.92;98791.53;5090579;28;20024;-76
2023/12/22 07:58:09;;;;;;;37.78;20.58;;;;;;;9.90;57.55;98783.97;5091219;28;20024;-78
2023/12/22 08:00:36;;;;;;;41.90;19.92;;;;;;;9.93;57.69;98779.13;5090764;28;20034;-79
2023/12/22 08:03:02;;;;;;;56.05;21.38;;;;;;;10.12;57.47;98802.97;5092604;28;20055;-78
2023/12/22 08:05:27;;;;;;;57.35;22.20;;;;;;;10.23;56.96;98805.38;5090422;28;20395;-79
2023/12/22 08:07:53;;;;;;;60.45;22.67;;;;;;;10.39;56.85;98809.91;5089585;28;20036;-77
2023/12/22 08:10:19;;;;;;;46.40;18.60;;;;;;;10.49;56.40;98813.25;5089989;28;20027;-76
2023/12/22 08:12:44;;;;;;;37.10;19.45;;;;;;;10.66;56.23;98814.09;5090065;28;20043;-78
2023/12/22 08:15:13;;;;;;;46.55;19.95;;;;;;;10.73;55.25;98818.59;5090525;28;20028;-79
2023/12/22 08:17:51;;;;;;;47.53;20.63;;;;;;;10.86;55.19;98812.69;5091103;28;20039;-80
2023/12/22 08:20:21;;;;;;;43.75;17.85;;;;;;;10.87;54.66;98798.25;5090658;28;20024;-78
2023/12/22 08:22:47;;;;;;;35.00;19.60;;;;;;;11.06;54.48;98824.78;5090420;28;20102;-77
2023/12/22 08:25:13;;;;;;;37.33;17.95;;;;;;;11.10;54.08;98814.53;5088610;28;20056;-80
2023/12/22 08:27:38;;;;;;;46.03;18.25;;;;;;;11.21;53.65;98814.16;5091144;28;20031;-79
2023/12/22 08:30:05;;;;;;;44.97;18.75;;;;;;;11.13;53.71;98803.41;5091363;28;20515;-79
2023/12/22 08:32:30;;;;;;;45.97;16.65;;;;;;;11.13;52.71;98798.03;5093093;28;20542;-79
2023/12/22 08:34:56;;;;;;;36.13;16.67;;;;;;;11.24;52.89;98806.56;5097893;28;20024;-78
2023/12/22 08:37:21;;;;;;;63.75;17.85;;;;;;;11.18;52.86;98787.59;5093232;28;20024;-79
2023/12/22 08:39:47;;;;;;;35.55;16.40;;;;;;;11.31;52.80;98801.34;5090434;28;20036;-78
2023/12/22 08:42:12;;;;;;;40.05;15.63;;;;;;;11.23;52.44;98782.50;5089842;28;20057;-79
2023/12/22 08:44:38;;;;;;;50.25;16.02;;;;;;;11.23;52.35;98779.81;5080760;28;20028;-77
2023/12/22 08:47:03;;;;;;;33.50;15.35;;;;;;;11.33;51.96;98791.22;5069392;28;20020;-79
2023/12/22 08:49:29;;;;;;;37.35;14.15;;;;;;;11.22;51.79;98781.66;5067940;28;20047;-78
2023/12/22 08:51:54;;;;;;;34.35;14.38;;;;;;;11.22;51.57;98783.53;5068975;28;20385;-79
2023/12/22 08:54:20;;;;;;;29.85;14.13;;;;;;;11.14;52.20;98783.56;5069387;28;20408;-78
2023/12/22 08:56:45;;;;;;;31.33;14.30;;;;;;;11.03;51.77;98786.63;5070035;28;20029;-79
2023/12/22 08:59:11;;;;;;;23.10;13.38;;;;;;;11.01;52.65;98785.97;5069388;28;20029;-78
2023/12/22 09:01:36;;;;;;;40.78;15.57;;;;;;;10.94;52.62;98767.00;5068535;28;20028;-78
2023/12/22 09:04:02;;;;;;;55.50;18.10;;;;;;;10.83;53.11;98740.44;5069126;28;20055;-79
2023/12/22 09:06:27;;;;;;;26.10;13.00;;;;;;;10.97;52.41;98755.88;5068309;28;20051;-77
2023/12/22 09:08:53;;;;;;;33.53;16.48;;;;;;;10.92;52.80;98753.69;5068186;28;20542;-76
2023/12/22 09:11:20;;;;;;;40.28;16.35;;;;;;;10.90;52.66;98739.59;5086825;28;20040;-76
2023/12/22 09:13:46;;;;;;;36.50;15.90;;;;;;;10.90;52.94;98750.34;5088056;28;20075;-78
2023/12/22 09:16:14;;;;;;;41.47;14.60;;;;;;;10.86;53.01;98732.88;5087462;28;20067;-78
2023/12/22 09:18:40;;;;;;;51.63;17.35;;;;;;;10.86;52.99;98722.13;5085436;28;20480;-79
2023/12/22 09:21:06;;;;;;;36.53;17.83;;;;;;;10.92;53.20;98725.97;5091468;28;20063;-79
2023/12/22 09:23:32;;;;;;;44.65;17.95;;;;;;;10.76;53.16;98705.34;5094612;28;20126;-80
2023/12/22 09:25:58;;;;;;;46.60;16.98;;;;;;;11.03;53.78;98732.81;5089796;28;20586;-79
2023/12/22 09:28:24;;;;;;;56.20;20.13;;;;;;;10.96;53.37;98718.38;5068121;28;20043;-80
2023/12/22 09:30:49;;;;;;;50.60;21.55;;;;;;;11.01;54.11;98734.88;5085580;28;20424;-81
2023/12/22 09:33:15;;;;;;;57.85;21.48;;;;;;;11.03;53.87;98717.53;5086325;28;20056;-77
2023/12/22 09:35:41;;;;;;;56.00;22.20;;;;;;;10.98;54.16;98697.56;5068942;28;20457;-79
2023/12/22 09:38:12;;;;;;;52.30;23.80;;;;;;;11.16;54.57;98712.41;5085889;28;20028;-78
2023/12/22 09:40:38;;;;;;;48.25;21.80;;;;;;;11.20;54.55;98712.91;5086063;28;20024;-77
2023/12/22 09:43:07;;;;;;;53.50;22.10;;;;;;;11.00;54.59;98687.44;5086032;28;20452;-78
2023/12/22 09:45:33;;;;;;;62.88;21.23;;;;;;;11.23;54.98;98701.78;5085594;28;20482;-79
2023/12/22 09:48:00;;;;;;;43.80;21.58;;;;;;;11.30;54.64;98687.47;5086029;28;20902;-77
2023/12/22 09:50:27;;;;;;;65.07;21.60;;;;;;;11.50;54.69;98692.41;5086350;28;20134;-78
2023/12/22 09:52:52;;;;;;;52.83;22.67;;;;;;;11.55;54.18;98680.09;5085815;28;20031;-78
2023/12/22 09:55:21;;;;;;;47.28;21.02;;;;;;;11.52;54.35;98655.38;5086426;28;20172;-79
2023/12/22 09:57:47;;;;;;;51.80;20.65;;;;;;;11.68;53.22;98680.31;5085872;28;20546;-79
2023/12/22 10:00:15;;;;;;;41.33;19.00;;;;;;;11.60;53.41;98661.53;5070261;28;20040;-79
2023/12/22 10:02:42;;;;;;;43.20;19.80;;;;;;;11.77;53.03;98676.56;5088949;28;20488;-77
2023/12/22 10:05:09;;;;;;;34.90;18.08;;;;;;;11.68;52.43;98669.53;5088371;28;20411;-78
2023/12/22 10:07:35;;;;;;;42.10;18.35;;;;;;;11.72;52.25;98678.97;5089728;28;20043;-78
2023/12/22 10:10:03;;;;;;;51.28;19.02;;;;;;;11.77;52.11;98681.16;5091495;28;20020;-78
2023/12/22 10:12:30;;;;;;;53.80;20.80;;;;;;;11.79;52.40;98674.56;5098523;28;20093;-80
2023/12/22 10:14:59;;;;;;;49.83;16.13;;;;;;;11.74;52.21;98647.31;5098472;28;20118;-78
2023/12/22 10:17:25;;;;;;;72.07;26.13;;;;;;;11.90;51.95;98649.03;5103343;28;20051;-77
2023/12/22 10:19:51;;;;;;;51.22;17.45;;;;;;;12.04;51.52;98652.81;5087820;28;20028;-79
2023/12/22 10:22:17;;;;;;;39.17;16.27;;;;;;;12.15;50.90;98660.44;5088640;28;20085;-77
2023/12/22 10:24:43;;;;;;;56.58;16.90;;;;;;;12.14;50.88;98664.16;5088022;28;20465;-77
2023/12/22 10:27:11;;;;;;;34.05;13.93;;;;;;;12.23;50.56;98649.59;5088384;28;20656;-76
2023/12/22 10:29:36;;;;;;;55.97;14.88;;;;;;;12.23;50.31;98646.91;5087664;28;20035;-79
2023/12/22 10:32:03;;;;;;;30.52;14.52;;;;;;;12.25;50.60;98642.16;5086635;28;20030;-79
2023/12/22 10:34:30;;;;;;;74.47;18.50;;;;;;;12.25;50.37;98609.81;5086604;28;20403;-78
2023/12/22 10:36:56;;;;;;;49.97;17.80;;;;;;;12.31;50.43;98601.00;5086587;28;20455;-77
2023/12/22 10:39:22;;;;;;;27.88;14.27;;;;;;;12.42;49.72;98597.81;5088186;28;20119;-78
2023/12/22 10:41:51;;;;;;;36.95;14.85;;;;;;;12.68;49.33;98624.31;5088039;28;20099;-79
2023/12/22 10:44:20;;;;;;;38.03;11.52;;;;;;;12.69;49.03;98613.34;5088267;28;20032;-79
2023/12/22 10:46:47;;;;;;;66.13;16.25;;;;;;;12.70;49.24;98592.59;5088259;28;20020;-78
2023/12/22 10:49:13;;;;;;;26.35;13.85;;;;;;;12.82;48.74;98596.50;5091885;28;20085;-78
2023/12/22 10:51:38;;;;;;;51.38;15.80;;;;;;;12.92;48.72;98599.75;5092131;28;20036;-77
2023/12/22 10:54:05;;;;;;;43.80;13.43;;;;;;;13.04;48.48;98607.16;5092170;28;20491;-77
2023/12/22 10:56:31;;;;;;;43.75;13.23;;;;;;;13.09;47.98;98603.91;5092049;28;20027;-77
2023/12/22 10:58:58;;;;;;;39.40;12.35;;;;;;;13.06;47.81;98597.00;5091935;28;20024;-79
2023/12/22 11:01:29;;;;;;;27.05;12.07;;;;;;;13.00;47.23;98592.38;5097756;28;20084;-80
2023/12/22 11:04:01;;;;;;;27.70;12.15;;;;;;;13.05;47.05;98600.75;5103637;28;20666;-82
2023/12/22 11:06:29;;;;;;;35.88;15.90;;;;;;;12.89;46.98;98584.78;5091913;28;20039;-79
2023/12/22 11:08:59;;;;;;;63.83;15.13;;;;;;;12.93;47.32;98582.53;5091006;28;20397;-79
2023/12/22 11:11:34;;;;;;;53.55;18.23;;;;;;;13.05;47.60;98594.50;5089703;28;20118;-77
2023/12/22 11:14:00;;;;;;;51.30;16.40;;;;;;;13.13;47.87;98598.97;5090519;28;20040;-78
2023/12/22 11:16:28;;;;;;;56.95;15.35;;;;;;;13.04;47.71;98576.63;5090649;28;20039;-76
2023/12/22 11:18:55;;;;;;;27.58;14.05;;;;;;;13.18;47.24;98604.66;5089979;28;20579;-75